Time;durP1;ratioP1;P1;durP2;ratioP2;P2;SDS_P1;SDS_P2;PMS_P1;PMS_P2;Temp;Humidity;BMP_temperature;BMP_pressure;BME280_temperature;BME280_humidity;BME280_pressure;Samples;Min_cycle;Max_cycle;Signal;HPM_P1;HPM_P2
2022/08/28 00:01:39;;;;;;;13.98;2.78;;;14.30;71.40;;;;;;4164797;28;20092;-84
2022/08/28 00:03:40;;;;;;;17.70;3.30;;;14.30;71.50;;;;;;4150427;28;20410;-84
2022/08/28 00:05:41;;;;;;;14.15;2.90;;;14.30;71.60;;;;;;4148106;28;20026;-84
2022/08/28 00:07:41;;;;;;;20.25;3.08;;;14.30;71.70;;;;;;4165898;28;20576;-84
2022/08/28 00:09:42;;;;;;;21.17;3.47;;;14.30;71.80;;;;;;4165477;28;20041;-84
2022/08/28 00:11:42;;;;;;;21.33;3.22;;;14.30;71.70;;;;;;4164422;28;20264;-84
2022/08/28 00:13:43;;;;;;;21.23;3.17;;;14.30;71.80;;;;;;4165392;28;20389;-84
2022/08/28 00:15:47;;;;;;;22.63;3.42;;;14.30;71.70;;;;;;4163351;28;20155;-85
2022/08/28 00:17:49;;;;;;;19.50;3.30;;;14.30;71.80;;;;;;4165078;28;20025;-83
2022/08/28 00:19:50;;;;;;;15.27;3.25;;;14.30;71.90;;;;;;4165840;28;20124;-84
2022/08/28 00:21:51;;;;;;;19.70;3.53;;;14.20;71.90;;;;;;4163677;28;20087;-84
2022/08/28 00:23:52;;;;;;;22.20;3.97;;;14.20;72.10;;;;;;4166020;28;20043;-84
2022/08/28 00:25:53;;;;;;;12.70;2.60;;;14.20;72.80;;;;;;4146345;28;20509;-83
2022/08/28 00:27:56;;;;;;;18.67;3.35;;;14.20;72.00;;;;;;4146019;28;20075;-84
2022/08/28 00:29:58;;;;;;;25.60;4.00;;;14.20;72.00;;;;;;4173983;28;20085;-83
2022/08/28 00:31:58;;;;;;;19.52;3.35;;;14.20;72.00;;;;;;4172105;28;20113;-84
2022/08/28 00:34:01;;;;;;;14.77;2.63;;;14.20;72.10;;;;;;4152782;28;20112;-84
2022/08/28 00:36:03;;;;;;;19.88;2.85;;;14.20;72.20;;;;;;4142100;28;20033;-84
2022/08/28 00:38:11;;;;;;;21.55;3.38;;;14.10;72.30;;;;;;4165488;28;20578;-83
2022/08/28 00:40:14;;;;;;;13.98;2.95;;;14.20;72.40;;;;;;4163399;28;20029;-84
2022/08/28 00:42:15;;;;;;;18.27;3.30;;;14.10;72.30;;;;;;4163985;28;20029;-83
2022/08/28 00:44:20;;;;;;;22.63;2.88;;;14.10;72.30;;;;;;4167567;28;20519;-83
2022/08/28 00:46:22;;;;;;;23.80;3.45;;;14.10;72.40;;;;;;4151243;28;20033;-82
2022/08/28 00:48:23;;;;;;;19.60;3.87;;;14.10;72.40;;;;;;4162050;28;20055;-83
2022/08/28 00:50:28;;;;;;;17.58;3.28;;;14.10;72.40;;;;;;4164519;28;20017;-83
2022/08/28 00:52:29;;;;;;;13.50;3.25;;;14.10;72.40;;;;;;4151605;28;20022;-83
2022/08/28 00:54:32;;;;;;;18.48;3.33;;;14.10;72.50;;;;;;4164351;28;20175;-84
2022/08/28 00:56:33;;;;;;;18.80;2.88;;;14.10;72.50;;;;;;4163300;28;20048;-83
2022/08/28 00:58:34;;;;;;;20.33;3.13;;;14.10;73.20;;;;;;4164615;28;20126;-83
2022/08/28 01:00:37;;;;;;;14.77;3.10;;;14.10;72.50;;;;;;4151847;28;20029;-83
2022/08/28 01:02:38;;;;;;;13.17;2.97;;;14.10;72.50;;;;;;4164591;28;20057;-83
2022/08/28 01:04:39;;;;;;;20.80;3.38;;;14.10;72.50;;;;;;4145061;28;20064;-83
2022/08/28 01:06:40;;;;;;;17.75;2.97;;;14.10;72.50;;;;;;4160836;28;20029;-83
2022/08/28 01:08:44;;;;;;;15.40;2.72;;;14.10;72.50;;;;;;4159869;28;20086;-83
2022/08/28 01:10:49;;;;;;;15.63;2.70;;;14.00;72.50;;;;;;4155122;28;21111;-83
2022/08/28 01:12:55;;;;;;;15.85;2.80;;;14.10;72.50;;;;;;4167681;28;20404;-83
2022/08/28 01:15:00;;;;;;;17.98;2.90;;;14.00;72.50;;;;;;4158816;28;20719;-83
2022/08/28 01:17:01;;;;;;;16.83;2.83;;;14.00;72.50;;;;;;4165003;28;20102;-83
2022/08/28 01:19:06;;;;;;;16.17;2.97;;;14.10;72.50;;;;;;4161145;28;20045;-84
2022/08/28 01:21:24;;;;;;;20.10;3.22;;;14.00;73.20;;;;;;4162731;28;20061;-84
2022/08/28 01:23:39;;;;;;;19.65;3.30;;;14.00;72.50;;;;;;4145008;28;20025;-83
2022/08/28 01:25:41;;;;;;;17.38;3.40;;;14.00;72.50;;;;;;4146561;28;20734;-83
2022/08/28 01:27:42;;;;;;;15.32;2.85;;;14.00;72.50;;;;;;4160846;28;20304;-83
2022/08/28 01:29:43;;;;;;;14.77;2.45;;;14.00;72.50;;;;;;4165913;28;20033;-83
2022/08/28 01:31:44;;;;;;;17.55;2.90;;;14.00;72.50;;;;;;4165408;28;20157;-83
2022/08/28 01:33:46;;;;;;;13.60;2.67;;;14.00;72.60;;;;;;4170999;28;20028;-83
2022/08/28 01:35:47;;;;;;;25.38;2.85;;;14.00;72.60;;;;;;4151010;28;20504;-83
2022/08/28 01:37:48;;;;;;;15.85;2.72;;;13.90;72.60;;;;;;4166156;28;20111;-83
2022/08/28 01:39:49;;;;;;;19.83;2.60;;;13.90;72.70;;;;;;4164433;28;20056;-83
2022/08/28 01:41:53;;;;;;;15.15;2.70;;;13.90;72.70;;;;;;4165553;28;20094;-82
2022/08/28 01:43:54;;;;;;;21.10;2.55;;;13.90;72.70;;;;;;4167592;28;20701;-83
2022/08/28 01:46:00;;;;;;;21.73;2.88;;;13.90;72.80;;;;;;4165103;28;20025;-83
2022/08/28 01:48:01;;;;;;;15.52;2.92;;;13.90;72.80;;;;;;4164565;28;21255;-84
2022/08/28 01:50:02;;;;;;;15.93;3.03;;;13.90;72.80;;;;;;4165171;28;20026;-83
2022/08/28 01:52:03;;;;;;;12.13;2.40;;;13.90;72.90;;;;;;4165351;28;20405;-83
2022/08/28 01:54:05;;;;;;;17.17;3.35;;;13.90;72.90;;;;;;4164323;28;20068;-83
2022/08/28 01:56:09;;;;;;;14.55;2.80;;;13.90;73.00;;;;;;4165554;28;20541;-83
2022/08/28 01:58:11;;;;;;;15.55;2.85;;;13.90;73.00;;;;;;4145205;28;20049;-83
2022/08/28 02:00:13;;;;;;;17.40;2.88;;;13.90;73.00;;;;;;4167757;28;20034;-84
2022/08/28 02:02:14;;;;;;;7.78;2.53;;;13.80;73.00;;;;;;4152963;28;20027;-83
2022/08/28 02:04:15;;;;;;;18.80;3.30;;;13.80;73.00;;;;;;4169175;28;20056;-83
2022/08/28 02:06:16;;;;;;;17.38;2.70;;;13.80;73.00;;;;;;4150698;28;20029;-83
2022/08/28 02:08:17;;;;;;;22.10;2.90;;;13.90;73.10;;;;;;4158883;28;20366;-83
2022/08/28 02:10:23;;;;;;;14.85;2.50;;;13.80;73.20;;;;;;4151995;28;20199;-82
2022/08/28 02:12:24;;;;;;;22.05;3.22;;;13.80;73.20;;;;;;4167208;28;20039;-83
2022/08/28 02:14:25;;;;;;;14.95;2.85;;;13.80;73.30;;;;;;4169121;28;20060;-83
2022/08/28 02:16:25;;;;;;;21.00;3.08;;;13.80;73.30;;;;;;4164330;28;20029;-83
2022/08/28 02:18:26;;;;;;;17.40;3.00;;;13.80;73.40;;;;;;4167662;28;20401;-83
2022/08/28 02:20:28;;;;;;;19.10;2.85;;;13.80;73.40;;;;;;4163934;28;20071;-83
2022/08/28 02:22:28;;;;;;;16.33;3.22;;;13.90;73.50;;;;;;4168069;28;20033;-83
2022/08/28 02:24:29;;;;;;;13.38;2.60;;;13.80;73.50;;;;;;4165659;28;20108;-83
2022/08/28 02:26:30;;;;;;;14.73;2.95;;;13.80;73.50;;;;;;4154281;28;20036;-83
2022/08/28 02:28:32;;;;;;;14.30;2.90;;;13.80;73.50;;;;;;4166624;28;20021;-83
2022/08/28 02:30:33;;;;;;;14.43;2.40;;;13.80;73.50;;;;;;4163136;28;20040;-83
2022/08/28 02:32:34;;;;;;;19.42;2.70;;;13.80;73.50;;;;;;4168392;28;20031;-83
2022/08/28 02:34:35;;;;;;;18.38;2.70;;;13.80;73.50;;;;;;4141088;28;20593;-83
2022/08/28 02:36:40;;;;;;;12.38;2.50;;;13.70;73.50;;;;;;4163265;28;20030;-83
2022/08/28 02:38:43;;;;;;;19.95;3.20;;;13.70;73.90;;;;;;4162808;28;20103;-83
2022/08/28 02:40:44;;;;;;;21.50;2.70;;;13.90;73.60;;;;;;4162199;28;20167;-82
2022/08/28 02:42:45;;;;;;;15.30;2.80;;;13.80;73.50;;;;;;4165671;28;20104;-83
2022/08/28 02:44:45;;;;;;;20.08;3.20;;;13.70;73.50;;;;;;4161759;28;20032;-83
2022/08/28 02:46:46;;;;;;;16.27;3.63;;;13.70;73.50;;;;;;4168205;28;20021;-83
2022/08/28 02:48:47;;;;;;;19.77;3.22;;;13.70;73.50;;;;;;4152834;28;20069;-84
2022/08/28 02:50:48;;;;;;;15.95;3.05;;;13.70;73.60;;;;;;4166508;28;21925;-82
2022/08/28 02:52:50;;;;;;;15.38;2.75;;;13.70;73.70;;;;;;4169367;28;20028;-83
2022/08/28 02:54:51;;;;;;;17.90;2.63;;;13.70;73.60;;;;;;4169147;28;20030;-83
2022/08/28 02:56:53;;;;;;;13.38;2.92;;;13.70;73.70;;;;;;4168287;28;20036;-83
2022/08/28 02:58:54;;;;;;;14.57;2.72;;;13.70;73.60;;;;;;4164531;28;20029;-83
2022/08/28 03:00:56;;;;;;;11.80;2.72;;;13.70;73.60;;;;;;4164562;28;20025;-82
2022/08/28 03:02:57;;;;;;;16.58;3.08;;;13.70;73.60;;;;;;4166495;28;20048;-81
2022/08/28 03:04:59;;;;;;;17.85;2.72;;;13.70;73.60;;;;;;4167433;28;20034;-82
2022/08/28 03:07:00;;;;;;;20.20;2.72;;;13.70;73.60;;;;;;4170222;28;20150;-82
2022/08/28 03:09:01;;;;;;;12.60;2.80;;;13.60;73.60;;;;;;4148396;28;20441;-82
2022/08/28 03:11:01;;;;;;;17.52;2.80;;;13.60;73.50;;;;;;4166594;28;20417;-82
2022/08/28 03:13:02;;;;;;;13.20;2.58;;;13.60;73.60;;;;;;4168630;28;20025;-83
2022/08/28 03:15:04;;;;;;;17.00;3.30;;;13.70;73.60;;;;;;4185131;28;20052;-82
2022/08/28 03:17:06;;;;;;;24.42;3.33;;;13.60;73.50;;;;;;4167296;28;20669;-82
2022/08/28 03:19:06;;;;;;;13.50;2.75;;;13.60;73.60;;;;;;4139315;28;20027;-82
2022/08/28 03:21:08;;;;;;;14.23;2.75;;;13.60;73.60;;;;;;4170116;28;20507;-83
2022/08/28 03:23:27;;;;;;;16.33;2.58;;;13.60;73.70;;;;;;4153433;28;20032;-82
2022/08/28 03:25:28;;;;;;;9.90;2.05;;;13.60;73.60;;;;;;4169954;28;20087;-83
2022/08/28 03:27:28;;;;;;;8.90;2.45;;;13.60;73.60;;;;;;4152226;28;20036;-83
2022/08/28 03:29:30;;;;;;;19.83;2.60;;;13.60;73.60;;;;;;4167891;28;20040;-82
2022/08/28 03:31:32;;;;;;;19.73;2.92;;;13.50;73.60;;;;;;4152956;28;20060;-82
2022/08/28 03:33:33;;;;;;;17.08;3.33;;;13.50;73.60;;;;;;4166192;28;20083;-83
2022/08/28 03:35:36;;;;;;;14.80;2.58;;;13.60;73.70;;;;;;4167021;28;20385;-82
2022/08/28 03:37:37;;;;;;;17.60;3.08;;;13.50;73.70;;;;;;4149722;28;20036;-83
2022/08/28 03:39:37;;;;;;;14.02;3.15;;;13.50;73.70;;;;;;4170519;28;20029;-81
2022/08/28 03:41:39;;;;;;;22.33;3.92;;;13.50;73.70;;;;;;4151279;28;20029;-83
2022/08/28 03:43:40;;;;;;;15.52;2.30;;;13.50;73.70;;;;;;4166881;28;20074;-83
2022/08/28 03:45:50;;;;;;;12.00;2.33;;;13.50;73.80;;;;;;4147972;28;20350;-82
2022/08/28 03:47:51;;;;;;;17.40;3.08;;;13.50;73.90;;;;;;4149408;28;20033;-82
2022/08/28 03:49:56;;;;;;;17.45;2.78;;;13.50;73.90;;;;;;4171224;28;20032;-83
2022/08/28 03:51:58;;;;;;;19.00;2.65;;;13.50;74.00;;;;;;4152608;28;20029;-83
2022/08/28 03:54:00;;;;;;;12.60;2.38;;;13.50;74.00;;;;;;4166684;28;20045;-83
2022/08/28 03:56:04;;;;;;;13.38;2.80;;;13.50;74.00;;;;;;4162616;28;20497;-82
2022/08/28 03:58:05;;;;;;;15.98;3.05;;;13.50;74.00;;;;;;4167225;28;20025;-83
2022/08/28 04:00:10;;;;;;;17.42;2.50;;;13.50;74.10;;;;;;4167525;28;20033;-84
2022/08/28 04:02:10;;;;;;;12.68;2.53;;;13.50;74.10;;;;;;4164538;28;20029;-83
2022/08/28 04:04:11;;;;;;;19.10;2.97;;;13.50;74.10;;;;;;4150148;28;20480;-82
2022/08/28 04:06:13;;;;;;;15.68;3.03;;;13.40;74.10;;;;;;4155713;28;20052;-84
2022/08/28 04:08:15;;;;;;;15.85;2.72;;;13.50;74.10;;;;;;4151773;28;20036;-83
2022/08/28 04:10:16;;;;;;;12.80;2.53;;;13.40;74.20;;;;;;4162500;28;20514;-83
2022/08/28 04:12:37;;;;;;;17.00;3.35;;;13.40;74.20;;;;;;4168139;28;20044;-83
2022/08/28 04:14:58;;;;;;;21.27;3.22;;;13.40;74.20;;;;;;4152676;28;20037;-83
2022/08/28 04:17:18;;;;;;;16.08;3.00;;;13.50;74.30;;;;;;4164124;28;20088;-83
2022/08/28 04:19:39;;;;;;;27.25;3.47;;;13.40;74.30;;;;;;4164250;28;20098;-83
2022/08/28 04:21:43;;;;;;;13.18;2.33;;;13.40;74.40;;;;;;4150575;28;20048;-84
2022/08/28 04:23:46;;;;;;;14.55;2.45;;;13.40;74.40;;;;;;4160581;28;20511;-83
2022/08/28 04:25:47;;;;;;;17.40;2.90;;;13.40;74.60;;;;;;4155756;28;20029;-83
2022/08/28 04:27:50;;;;;;;16.33;3.30;;;13.40;74.60;;;;;;4149075;28;20061;-83
2022/08/28 04:29:51;;;;;;;;;;;13.40;74.70;;;;;;4164464;28;20032;-83
2022/08/28 04:31:51;;;;;;;13.45;3.28;;;13.50;74.80;;;;;;4144749;28;19913;-83
2022/08/28 04:33:52;;;;;;;18.05;2.67;;;13.40;74.50;;;;;;4154018;28;20116;-83
2022/08/28 04:35:54;;;;;;;17.35;2.80;;;13.50;74.60;;;;;;4164910;28;20071;-82
2022/08/28 04:37:54;;;;;;;16.35;2.67;;;13.40;74.70;;;;;;4166830;28;20137;-82
2022/08/28 04:39:55;;;;;;;18.45;3.08;;;13.50;74.80;;;;;;4152637;28;20037;-82
2022/08/28 04:41:55;;;;;;;15.77;2.83;;;13.50;75.00;;;;;;4148245;28;20037;-83
2022/08/28 04:43:56;;;;;;;18.30;3.35;;;13.50;75.10;;;;;;4148143;28;20447;-83
2022/08/28 04:45:57;;;;;;;17.70;3.08;;;13.50;75.10;;;;;;4163360;28;20033;-82
2022/08/28 04:47:58;;;;;;;15.68;3.40;;;13.50;75.30;;;;;;4147612;28;20024;-83
2022/08/28 04:49:59;;;;;;;20.80;3.22;;;13.50;75.20;;;;;;4168454;28;20028;-82
2022/08/28 04:52:00;;;;;;;17.20;2.50;;;13.50;75.20;;;;;;4163842;28;20044;-82
2022/08/28 04:54:02;;;;;;;15.63;2.72;;;13.50;75.30;;;;;;4150125;28;20022;-83
2022/08/28 04:56:06;;;;;;;15.48;2.67;;;13.50;75.30;;;;;;4177004;28;20071;-83
2022/08/28 04:58:06;;;;;;;16.75;3.10;;;13.50;75.20;;;;;;4162934;28;20525;-83
2022/08/28 05:00:09;;;;;;;14.88;3.05;;;13.60;75.30;;;;;;4155731;28;20126;-82
2022/08/28 05:02:10;;;;;;;15.48;2.85;;;13.60;75.30;;;;;;4149708;28;20034;-82
2022/08/28 05:04:11;;;;;;;21.45;3.67;;;13.60;75.40;;;;;;4176790;28;20029;-82
2022/08/28 05:06:14;;;;;;;12.00;2.88;;;13.60;75.40;;;;;;4173818;28;20013;-82
2022/08/28 05:08:18;;;;;;;14.10;3.15;;;13.60;75.50;;;;;;4183060;28;20036;-82
2022/08/28 05:10:18;;;;;;;22.10;3.35;;;13.60;75.50;;;;;;4169885;28;20045;-82
2022/08/28 05:12:19;;;;;;;30.45;3.58;;;13.60;75.60;;;;;;4197384;28;20029;-84
2022/08/28 05:14:20;;;;;;;18.15;3.20;;;13.70;75.60;;;;;;4183457;28;20025;-83
2022/08/28 05:16:21;;;;;;;21.65;3.20;;;13.70;75.70;;;;;;4159089;28;20033;-82
2022/08/28 05:18:22;;;;;;;20.35;2.85;;;13.70;75.80;;;;;;4144716;28;20029;-83
2022/08/28 05:20:23;;;;;;;13.65;3.40;;;13.70;75.80;;;;;;4178730;28;20477;-82
2022/08/28 05:22:25;;;;;;;20.58;2.83;;;13.80;75.90;;;;;;4155108;28;20033;-83
2022/08/28 05:24:26;;;;;;;15.15;2.83;;;13.80;75.90;;;;;;4174145;28;20041;-83
2022/08/28 05:26:27;;;;;;;15.65;3.15;;;13.80;75.90;;;;;;4141572;28;21644;-83
2022/08/28 05:28:28;;;;;;;16.38;2.95;;;13.90;75.90;;;;;;4163486;28;20060;-82
2022/08/28 05:30:28;;;;;;;18.67;3.53;;;13.90;75.90;;;;;;4160418;28;20022;-83
2022/08/28 05:32:29;;;;;;;15.98;3.03;;;13.90;75.80;;;;;;4153346;28;20045;-83
2022/08/28 05:34:30;;;;;;;15.70;3.15;;;14.00;75.80;;;;;;4158740;28;20492;-82
2022/08/28 05:36:33;;;;;;;20.05;3.05;;;14.00;75.80;;;;;;4165829;28;20064;-83
2022/08/28 05:38:34;;;;;;;;;;;14.00;75.70;;;;;;4166423;28;20036;-82
2022/08/28 05:40:41;;;;;;;18.25;2.63;;;14.10;75.80;;;;;;4165419;28;19971;-83
2022/08/28 05:42:43;;;;;;;13.45;2.63;;;14.10;75.30;;;;;;4154437;28;20033;-83
2022/08/28 05:44:44;;;;;;;11.95;2.75;;;14.20;75.30;;;;;;4169453;28;20154;-83
2022/08/28 05:46:49;;;;;;;13.55;2.72;;;14.20;75.20;;;;;;4158244;28;20040;-84
2022/08/28 05:48:50;;;;;;;16.02;2.40;;;14.30;75.30;;;;;;4168880;28;20143;-83
2022/08/28 05:50:51;;;;;;;12.30;3.00;;;14.30;75.20;;;;;;4157963;28;20021;-82
2022/08/28 05:52:52;;;;;;;13.20;3.10;;;14.40;75.00;;;;;;4169621;28;20454;-83
2022/08/28 05:54:53;;;;;;;21.17;3.47;;;14.40;74.80;;;;;;4156424;28;20025;-84
2022/08/28 05:56:53;;;;;;;16.88;3.10;;;14.40;74.60;;;;;;4153737;28;20584;-83
2022/08/28 05:58:55;;;;;;;23.77;3.20;;;14.50;74.60;;;;;;4159342;28;20056;-83
2022/08/28 06:01:10;;;;;;;19.13;2.85;;;14.50;74.40;;;;;;4162958;28;20037;-83
2022/08/28 06:03:11;;;;;;;29.35;3.25;;;14.50;74.30;;;;;;4154186;28;20025;-83
2022/08/28 06:05:11;;;;;;;17.77;3.45;;;14.60;74.30;;;;;;4153315;28;20037;-83
2022/08/28 06:07:14;;;;;;;14.63;2.65;;;14.60;74.80;;;;;;4168095;28;20033;-83
2022/08/28 06:09:18;;;;;;;24.03;3.20;;;14.60;73.90;;;;;;4154580;28;20025;-83
2022/08/28 06:11:20;;;;;;;16.35;2.60;;;14.70;73.70;;;;;;4167491;28;20039;-84
2022/08/28 06:13:21;;;;;;;22.65;3.83;;;14.70;73.50;;;;;;4152284;28;21009;-83
2022/08/28 06:15:22;;;;;;;9.63;2.25;;;14.70;73.50;;;;;;4136604;28;20125;-83
2022/08/28 06:17:22;;;;;;;17.40;2.90;;;14.80;73.50;;;;;;4170538;28;20099;-83
2022/08/28 06:19:25;;;;;;;22.60;3.95;;;14.80;73.40;;;;;;4142415;28;20067;-84
2022/08/28 06:21:27;;;;;;;22.83;3.65;;;14.90;73.40;;;;;;4171051;28;20057;-84
2022/08/28 06:23:28;;;;;;;17.08;3.38;;;14.90;73.30;;;;;;4156369;28;20147;-83
2022/08/28 06:25:28;;;;;;;19.95;3.25;;;14.90;73.30;;;;;;4151924;28;20509;-84
2022/08/28 06:27:31;;;;;;;12.75;2.90;;;14.90;73.30;;;;;;4172661;28;20025;-84
2022/08/28 06:29:32;;;;;;;20.10;2.97;;;15.00;73.30;;;;;;4160805;28;20030;-84
2022/08/28 06:31:33;;;;;;;13.65;3.25;;;15.10;73.40;;;;;;4143701;28;20217;-82
2022/08/28 06:33:34;;;;;;;23.13;2.90;;;15.10;73.20;;;;;;4175111;28;20036;-84
2022/08/28 06:35:40;;;;;;;19.60;3.35;;;15.20;73.00;;;;;;4171865;28;20398;-83
2022/08/28 06:37:41;;;;;;;13.35;2.55;;;15.20;72.90;;;;;;4163672;28;20489;-84
2022/08/28 06:39:42;;;;;;;21.92;3.33;;;15.20;72.80;;;;;;4177349;28;20037;-83
2022/08/28 06:41:42;;;;;;;20.63;3.25;;;15.30;72.60;;;;;;4161664;28;20054;-83
2022/08/28 06:43:43;;;;;;;13.65;2.60;;;15.30;72.30;;;;;;4173168;28;20029;-83
2022/08/28 06:45:46;;;;;;;20.73;3.05;;;15.40;72.20;;;;;;4177601;28;20096;-84
2022/08/28 06:47:47;;;;;;;14.20;2.75;;;15.40;72.10;;;;;;4175168;28;20037;-84
2022/08/28 06:49:51;;;;;;;18.20;2.85;;;15.40;71.80;;;;;;4161401;28;20504;-82
2022/08/28 06:51:51;;;;;;;14.80;3.15;;;15.50;71.50;;;;;;4159965;28;20128;-85
2022/08/28 06:53:52;;;;;;;10.60;3.00;;;15.50;71.30;;;;;;4166076;28;20056;-84
2022/08/28 06:56:07;;;;;;;14.52;2.85;;;15.60;71.40;;;;;;4169912;28;20958;-82
2022/08/28 06:58:10;;;;;;;16.65;2.92;;;15.60;71.20;;;;;;4153466;28;20118;-84
2022/08/28 07:00:11;;;;;;;17.43;3.23;;;15.60;71.20;;;;;;4159189;28;20162;-84
2022/08/28 07:02:11;;;;;;;17.30;3.22;;;15.60;71.10;;;;;;4168566;28;20284;-83
2022/08/28 07:04:13;;;;;;;19.33;3.40;;;15.60;70.90;;;;;;4168014;28;20749;-83
2022/08/28 07:06:14;;;;;;;20.27;3.05;;;15.70;71.00;;;;;;4153393;28;20143;-83
2022/08/28 07:08:15;;;;;;;14.77;2.95;;;15.70;71.00;;;;;;4163636;28;20064;-83
2022/08/28 07:10:16;;;;;;;15.13;2.85;;;15.70;70.90;;;;;;4167667;28;20029;-83
2022/08/28 07:12:18;;;;;;;16.77;3.10;;;15.80;71.00;;;;;;4162564;28;20069;-83
2022/08/28 07:14:18;;;;;;;14.82;2.63;;;15.80;71.00;;;;;;4145050;28;20516;-82
2022/08/28 07:16:22;;;;;;;14.85;2.90;;;15.90;71.20;;;;;;4170627;28;20048;-84
2022/08/28 07:18:22;;;;;;;12.82;3.20;;;15.90;71.10;;;;;;4167310;28;20057;-83
2022/08/28 07:20:44;;;;;;;21.08;3.35;;;16.00;71.10;;;;;;4166026;28;20045;-84
2022/08/28 07:23:05;;;;;;;14.68;2.92;;;16.00;71.00;;;;;;4168604;28;20075;-84
2022/08/28 07:25:26;;;;;;;15.80;2.70;;;16.10;70.80;;;;;;4164661;28;20551;-84
2022/08/28 07:27:46;;;;;;;14.70;3.05;;;16.10;70.70;;;;;;4159552;28;20140;-84
2022/08/28 07:30:08;;;;;;;12.10;2.67;;;16.20;70.30;;;;;;4150944;28;20034;-84
2022/08/28 07:32:29;;;;;;;18.38;3.38;;;16.20;70.30;;;;;;4172026;28;20036;-83
2022/08/28 07:34:50;;;;;;;11.27;2.70;;;16.30;70.20;;;;;;4157640;28;20095;-83
2022/08/28 07:37:11;;;;;;;15.82;2.80;;;16.40;70.30;;;;;;4160795;28;20044;-83
2022/08/28 07:39:32;;;;;;;11.10;2.72;;;16.40;70.30;;;;;;4158329;28;20738;-83
2022/08/28 07:41:53;;;;;;;26.25;3.95;;;16.50;70.30;;;;;;4143956;28;21853;-84
2022/08/28 07:46:15;;;;;;;17.13;3.30;;;16.70;69.70;;;;;;4160020;28;20109;-84
2022/08/28 07:48:15;;;;;;;15.75;3.10;;;16.80;69.50;;;;;;4166384;28;20033;-84
2022/08/28 07:50:16;;;;;;;16.70;3.30;;;16.80;68.30;;;;;;4178997;28;20535;-84
2022/08/28 07:52:20;;;;;;;20.08;4.20;;;16.90;67.60;;;;;;4169699;28;20025;-84
2022/08/28 07:54:22;;;;;;;17.58;2.83;;;16.90;67.10;;;;;;4175715;28;20055;-84
2022/08/28 07:56:25;;;;;;;19.45;3.80;;;17.00;67.10;;;;;;4163148;28;20539;-85
2022/08/28 07:58:25;;;;;;;10.35;2.38;;;17.00;67.00;;;;;;4162043;28;20037;-84
2022/08/28 08:00:26;;;;;;;17.08;3.35;;;17.10;67.00;;;;;;4151457;28;20038;-83
2022/08/28 08:02:27;;;;;;;17.75;3.40;;;17.20;66.70;;;;;;4162960;28;20037;-85
2022/08/28 08:04:27;;;;;;;12.63;2.55;;;17.20;66.60;;;;;;4166208;28;20084;-84
2022/08/28 08:06:30;;;;;;;14.30;3.03;;;17.30;66.60;;;;;;4169750;28;20268;-83
2022/08/28 08:08:32;;;;;;;14.00;3.05;;;17.30;66.30;;;;;;4175691;28;20045;-85
2022/08/28 08:10:33;;;;;;;14.82;2.90;;;17.40;65.80;;;;;;4183937;28;20063;-84
2022/08/28 08:12:34;;;;;;;12.57;3.10;;;17.40;65.50;;;;;;4169508;28;20665;-84
2022/08/28 08:14:36;;;;;;;13.45;2.88;;;17.50;65.30;;;;;;4171427;28;20309;-83
2022/08/28 08:16:39;;;;;;;13.68;3.30;;;17.60;65.30;;;;;;4168305;28;20638;-84
2022/08/28 08:18:41;;;;;;;15.20;3.15;;;17.60;64.80;;;;;;4156538;28;20075;-85
2022/08/28 08:20:41;;;;;;;11.52;2.65;;;17.70;64.70;;;;;;4167206;28;20064;-84
2022/08/28 08:22:42;;;;;;;9.90;2.45;;;17.80;64.30;;;;;;4148553;28;20022;-84
2022/08/28 08:24:43;;;;;;;21.58;3.33;;;17.90;63.60;;;;;;4173669;28;20058;-85
2022/08/28 08:26:44;;;;;;;16.60;3.33;;;17.90;62.90;;;;;;4169559;28;20032;-85
2022/08/28 08:28:46;;;;;;;14.45;2.88;;;17.90;62.60;;;;;;4157280;28;20032;-85
2022/08/28 08:30:46;;;;;;;11.77;3.00;;;18.00;62.50;;;;;;4169569;28;20026;-85
2022/08/28 08:32:47;;;;;;;11.73;2.65;;;18.00;62.40;;;;;;4154791;28;20047;-84
2022/08/28 08:34:51;;;;;;;15.02;3.10;;;18.00;62.00;;;;;;4152058;28;20048;-84
2022/08/28 08:36:53;;;;;;;9.93;2.55;;;18.10;61.60;;;;;;4167518;28;20280;-85
2022/08/28 08:38:54;;;;;;;15.25;2.75;;;18.20;61.60;;;;;;4165309;28;20053;-85
2022/08/28 08:40:56;;;;;;;14.43;3.15;;;18.20;61.20;;;;;;4168629;28;20032;-86
2022/08/28 08:42:57;;;;;;;11.63;2.97;;;18.30;60.50;;;;;;4164763;28;20040;-86
2022/08/28 08:45:02;;;;;;;13.10;3.35;;;18.30;60.30;;;;;;4184171;28;20029;-86
2022/08/28 08:47:27;;;;;;;8.77;2.58;;;18.30;59.40;;;;;;4161992;28;20075;-86
2022/08/28 08:49:34;;;;;;;14.70;3.10;;;18.30;59.20;;;;;;4182604;28;20028;-87
2022/08/28 08:52:04;;;;;;;12.50;2.97;;;18.40;59.00;;;;;;4167344;28;20029;-86
2022/08/28 08:54:13;;;;;;;10.05;2.53;;;18.40;58.50;;;;;;4117305;28;20047;-86
2022/08/28 08:56:15;;;;;;;17.45;2.72;;;18.50;58.80;;;;;;4116027;28;20185;-86
2022/08/28 08:58:29;;;;;;;13.73;3.10;;;18.50;59.00;;;;;;4110652;28;20037;-87
2022/08/28 09:00:32;;;;;;;10.52;2.78;;;18.50;58.40;;;;;;4123196;28;20033;-87
2022/08/28 09:02:39;;;;;;;12.32;2.60;;;18.60;58.30;;;;;;4105378;28;20031;-87
2022/08/28 09:04:46;;;;;;;10.45;2.88;;;18.70;57.40;;;;;;4110365;28;20517;-87
2022/08/28 09:06:59;;;;;;;11.80;2.72;;;18.70;57.70;;;;;;4121656;28;20052;-84
2022/08/28 09:09:04;;;;;;;18.35;3.25;;;18.80;57.40;;;;;;4087351;28;20076;-84
2022/08/28 09:11:26;;;;;;;12.10;2.90;;;18.80;57.10;;;;;;4120709;28;20054;-86
2022/08/28 09:13:38;;;;;;;17.17;2.70;;;18.90;57.10;;;;;;4120306;28;20050;-86
2022/08/28 09:15:44;;;;;;;14.90;2.85;;;19.00;57.20;;;;;;4120181;28;20069;-86
2022/08/28 09:17:48;;;;;;;9.73;2.80;;;19.10;57.60;;;;;;4123236;28;20103;-86
2022/08/28 09:19:49;;;;;;;10.13;2.58;;;19.10;57.30;;;;;;4082072;28;20031;-85
2022/08/28 09:21:50;;;;;;;6.13;2.13;;;19.20;57.20;;;;;;4108209;28;20221;-86
2022/08/28 09:23:53;;;;;;;9.48;2.38;;;19.30;57.20;;;;;;4114810;28;20030;-88
2022/08/28 09:25:59;;;;;;;11.43;3.03;;;19.30;56.90;;;;;;4108944;28;20114;-87
2022/08/28 09:28:08;;;;;;;19.40;2.80;;;19.30;57.10;;;;;;4107155;28;20078;-87
2022/08/28 09:30:10;;;;;;;8.07;2.75;;;19.30;57.30;;;;;;4093539;28;20023;-89
2022/08/28 09:32:28;;;;;;;9.50;2.47;;;19.40;56.70;;;;;;4169283;28;20120;-88
2022/08/28 09:34:33;;;;;;;16.08;3.35;;;19.40;56.40;;;;;;4173580;28;20024;-88
2022/08/28 09:36:36;;;;;;;10.20;2.75;;;19.50;56.80;;;;;;4167170;28;20060;-89
2022/08/28 09:38:37;;;;;;;;;;;19.60;57.00;;;;;;4167118;28;20056;-91
2022/08/28 09:43:30;;;;;;;10.02;2.65;;;19.70;56.20;;;;;;4163391;28;20317;-88
2022/08/28 09:45:31;;;;;;;7.45;2.38;;;19.80;55.90;;;;;;4167440;28;20033;-89
2022/08/28 09:47:56;;;;;;;12.45;2.40;;;19.80;55.60;;;;;;4139000;28;20030;-88
2022/08/28 09:50:13;;;;;;;10.70;2.72;;;19.80;55.90;;;;;;4147707;28;20061;-88
2022/08/28 09:52:19;;;;;;;14.60;3.10;;;19.80;56.20;;;;;;4154278;28;20059;-90
2022/08/28 09:54:48;;;;;;;8.80;2.70;;;19.80;55.90;;;;;;4162585;28;20123;-87
2022/08/28 09:56:50;;;;;;;13.10;3.38;;;19.80;55.30;;;;;;4154076;23;20058;-82
2022/08/28 09:59:11;;;;;;;13.38;2.55;;;19.80;55.30;;;;;;4165531;28;20176;-84
2022/08/28 10:01:23;;;;;;;13.13;3.13;;;19.90;55.40;;;;;;4161020;28;20049;-83
2022/08/28 10:03:34;;;;;;;13.70;3.53;;;19.90;55.70;;;;;;4144946;28;20512;-85
2022/08/28 10:06:01;;;;;;;12.52;2.55;;;20.00;56.10;;;;;;4147196;28;20033;-86
2022/08/28 10:08:11;;;;;;;10.20;2.72;;;20.00;56.30;;;;;;4139743;28;20034;-84
2022/08/28 10:10:12;;;;;;;7.80;2.38;;;20.00;56.30;;;;;;4146991;28;20420;-89
2022/08/28 10:12:22;;;;;;;8.88;2.65;;;20.10;56.30;;;;;;4143301;28;20413;-85
2022/08/28 10:14:33;;;;;;;12.45;2.60;;;20.10;55.80;;;;;;4148037;28;20026;-84
2022/08/28 10:17:12;;;;;;;7.90;2.58;;;20.10;55.20;;;;;;4144338;28;20583;-86
2022/08/28 10:19:21;;;;;;;15.05;2.92;;;20.10;55.20;;;;;;4134737;28;20041;-83
2022/08/28 10:21:43;;;;;;;12.68;3.67;;;20.10;55.20;;;;;;4150521;28;20551;-85
2022/08/28 10:24:11;;;;;;;11.77;2.72;;;20.20;55.50;;;;;;4132158;28;20019;-86
2022/08/28 10:26:46;;;;;;;18.40;3.28;;;20.20;55.30;;;;;;4128045;28;20037;-84
2022/08/28 10:29:16;;;;;;;7.72;2.10;;;20.20;54.80;;;;;;4147268;28;20566;-85
2022/08/28 10:31:36;;;;;;;10.35;2.55;;;20.20;54.30;;;;;;4147766;28;20026;-86
2022/08/28 10:34:05;;;;;;;10.50;3.38;;;20.20;53.60;;;;;;4147880;28;20029;-86
2022/08/28 10:36:19;;;;;;;13.32;2.78;;;20.30;53.80;;;;;;4154311;28;20026;-84
2022/08/28 10:38:39;;;;;;;11.90;3.42;;;20.30;54.00;;;;;;4151491;28;20620;-86
2022/08/28 10:40:42;;;;;;;10.85;2.70;;;20.30;54.20;;;;;;4133409;28;20061;-85
2022/08/28 10:42:54;;;;;;;14.77;2.78;;;20.20;54.50;;;;;;4163241;28;20044;-85
2022/08/28 10:45:13;;;;;;;12.70;3.00;;;20.30;54.40;;;;;;4131229;28;20041;-84
2022/08/28 10:47:27;;;;;;;13.18;2.42;;;20.40;53.90;;;;;;4163929;28;20022;-84